createdAt,value
2022-08-03T00:01:05.712Z,100483.53
2022-08-03T00:03:54.180Z,100482.16
2022-08-03T00:06:42.942Z,100495.03
2022-08-03T00:09:35.452Z,100517.38
2022-08-03T00:12:24.421Z,100533.28
2022-08-03T00:15:16.637Z,100568.63
2022-08-03T00:18:05.439Z,100580.00
2022-08-03T00:20:53.866Z,100554.50
2022-08-03T00:23:51.921Z,100569.81
2022-08-03T00:26:41.219Z,100564.69
2022-08-03T00:29:29.686Z,100553.81
2022-08-03T00:32:18.139Z,100541.34
2022-08-03T00:35:09.927Z,100541.63
2022-08-03T00:38:01.015Z,100554.84
2022-08-03T00:40:49.428Z,100547.72
2022-08-03T00:43:38.129Z,100551.94
2022-08-03T00:46:26.504Z,100553.66
2022-08-03T00:49:14.991Z,100568.25
2022-08-03T00:52:09.597Z,100569.44
2022-08-03T00:54:58.232Z,100580.66
2022-08-03T00:57:46.977Z,100573.22
2022-08-03T01:00:41.375Z,100565.25
2022-08-03T01:03:29.931Z,100568.88
2022-08-03T01:06:33.317Z,100562.63
2022-08-03T01:09:44.749Z,100574.53
2022-08-03T01:12:36.841Z,100585.84
2022-08-03T01:15:28.261Z,100596.34
2022-08-03T01:18:30.771Z,100611.56
2022-08-03T01:21:29.646Z,100603.75
2022-08-03T01:24:42.544Z,100587.69
2022-08-03T01:28:20.525Z,100557.88
2022-08-03T01:31:11.942Z,100561.22
2022-08-03T01:34:03.569Z,100563.81
2022-08-03T01:36:59.546Z,100567.97
2022-08-03T01:39:49.408Z,100585.66
2022-08-03T01:42:40.540Z,100577.41
2022-08-03T01:45:29.880Z,100591.03
2022-08-03T01:48:23.068Z,100590.13
2022-08-03T01:51:11.902Z,100589.50
2022-08-03T01:54:01.716Z,100597.53
2022-08-03T01:56:52.012Z,100595.53
2022-08-03T01:59:42.481Z,100593.47
2022-08-03T02:02:34.494Z,100611.25
2022-08-03T02:05:24.953Z,100600.94
2022-08-03T02:08:14.364Z,100598.09
2022-08-03T02:11:03.556Z,100603.59
2022-08-03T02:13:52.605Z,100606.41
2022-08-03T02:16:41.180Z,100614.63
2022-08-03T02:19:35.252Z,100614.69
2022-08-03T02:22:25.300Z,100622.69
2022-08-03T02:25:15.851Z,100618.59
2022-08-03T02:28:12.705Z,100608.59
2022-08-03T02:31:06.229Z,100611.31
2022-08-03T02:34:00.021Z,100626.44
2022-08-03T02:36:53.441Z,100631.78
2022-08-03T02:39:43.048Z,100633.69
2022-08-03T02:42:33.766Z,100629.09
2022-08-03T02:45:24.748Z,100646.03
2022-08-03T02:48:16.367Z,100644.97
2022-08-03T02:51:04.944Z,100654.88
2022-08-03T02:53:55.660Z,100641.84
2022-08-03T02:56:45.886Z,100648.19
2022-08-03T02:59:35.329Z,100648.28
2022-08-03T03:02:25.289Z,100647.38
2022-08-03T03:05:56.235Z,100648.31
2022-08-03T03:08:25.981Z,100660.06
2022-08-03T03:11:19.229Z,100653.00
2022-08-03T03:14:09.670Z,100669.25
2022-08-03T03:16:58.264Z,100685.72
2022-08-03T03:19:46.935Z,100681.81
2022-08-03T03:22:35.697Z,100662.34
2022-08-03T03:25:24.766Z,100659.75
2022-08-03T03:28:13.385Z,100655.84
2022-08-03T03:31:01.928Z,100655.88
2022-08-03T03:33:50.509Z,100634.44
2022-08-03T03:36:38.936Z,100645.00
2022-08-03T03:39:27.489Z,100644.25
2022-08-03T03:42:16.581Z,100664.91
2022-08-03T03:45:07.226Z,100691.69
2022-08-03T03:47:55.885Z,100707.19
2022-08-03T03:50:44.978Z,100700.38
2022-08-03T03:53:33.673Z,100677.63
2022-08-03T03:56:22.085Z,100668.91
2022-08-03T03:59:10.469Z,100671.66
2022-08-03T04:01:59.495Z,100677.97
2022-08-03T04:05:06.629Z,100660.94
2022-08-03T04:08:23.984Z,100685.09
2022-08-03T04:11:12.375Z,100670.91
2022-08-03T04:14:27.867Z,100668.91
2022-08-03T04:17:17.221Z,100687.59
2022-08-03T04:20:06.955Z,100685.94
2022-08-03T04:22:55.988Z,100700.88
2022-08-03T04:25:45.045Z,100721.28
2022-08-03T04:28:33.863Z,100735.56
2022-08-03T04:31:24.729Z,100740.00
2022-08-03T04:34:13.367Z,100733.59
2022-08-03T04:37:07.919Z,100753.16
2022-08-03T04:39:58.717Z,100755.72
2022-08-03T04:42:49.236Z,100769.16
2022-08-03T04:45:38.139Z,100779.66
2022-08-03T04:48:26.702Z,100764.38
2022-08-03T04:51:15.255Z,100758.06
2022-08-03T04:54:03.881Z,100778.47
2022-08-03T04:56:52.616Z,100765.84
2022-08-03T04:59:41.086Z,100779.88
2022-08-03T05:02:30.016Z,100778.97
2022-08-03T05:05:18.596Z,100796.00
2022-08-03T05:08:11.174Z,100802.97
2022-08-03T05:10:59.889Z,100818.06
2022-08-03T05:13:48.712Z,100816.09
2022-08-03T05:16:37.181Z,100816.06
2022-08-03T05:19:25.711Z,100800.75
2022-08-03T05:22:14.304Z,100785.47
2022-08-03T05:25:03.484Z,100788.75
2022-08-03T05:27:51.977Z,100796.53
2022-08-03T05:30:40.502Z,100790.91
2022-08-03T05:33:28.888Z,100778.22
2022-08-03T05:36:17.371Z,100775.72
2022-08-03T05:39:05.792Z,100755.84
2022-08-03T05:41:54.378Z,100760.81
2022-08-03T05:44:42.835Z,100756.16
2022-08-03T05:47:31.372Z,100737.22
2022-08-03T05:50:20.915Z,100768.91
2022-08-03T05:53:09.488Z,100757.72
2022-08-03T05:56:02.330Z,100734.09
2022-08-03T05:59:16.296Z,100747.94
2022-08-03T06:02:10.460Z,100745.09
2022-08-03T06:04:58.849Z,100738.69
2022-08-03T06:07:47.288Z,100739.88
2022-08-03T06:10:38.378Z,100721.31
2022-08-03T06:13:27.108Z,100730.66
2022-08-03T06:16:15.490Z,100672.03
2022-08-03T06:19:04.236Z,100692.69
2022-08-03T06:21:52.656Z,100678.22
2022-08-03T06:24:41.849Z,100687.97
2022-08-03T06:27:42.073Z,100684.34
2022-08-03T06:30:30.679Z,100669.63
2022-08-03T06:33:19.178Z,100643.44
2022-08-03T06:36:07.844Z,100644.28
2022-08-03T06:38:56.340Z,100640.75
2022-08-03T06:41:45.301Z,100637.13
2022-08-03T06:44:33.685Z,100649.69
2022-08-03T06:47:22.392Z,100636.44
2022-08-03T06:50:16.185Z,100563.44
2022-08-03T06:53:06.631Z,100599.53
2022-08-03T06:55:55.451Z,100608.44
2022-08-03T06:58:43.953Z,100608.28
2022-08-03T07:01:32.426Z,100612.53
2022-08-03T07:04:20.981Z,100640.34
2022-08-03T07:07:09.452Z,100575.97
2022-08-03T07:09:58.498Z,100569.09
2022-08-03T07:12:56.233Z,100576.34
2022-08-03T07:15:55.271Z,100585.53
2022-08-03T07:18:44.477Z,100524.41
2022-08-03T07:21:32.860Z,100535.50
2022-08-03T07:24:21.371Z,100494.63
2022-08-03T07:27:10.137Z,100478.91
2022-08-03T07:29:59.075Z,100497.34
2022-08-03T07:32:50.497Z,100469.53
2022-08-03T07:35:39.335Z,100454.72
2022-08-03T07:38:27.851Z,100459.97
2022-08-03T07:41:16.288Z,100471.69
2022-08-03T07:44:04.875Z,100471.53
2022-08-03T07:46:53.357Z,100403.75
2022-08-03T07:49:42.094Z,100418.78
2022-08-03T07:52:49.546Z,100394.13
2022-08-03T07:55:38.283Z,100379.91
2022-08-03T07:58:26.792Z,100378.72
2022-08-03T08:01:15.369Z,100360.09
2022-08-03T08:04:03.889Z,100342.47
2022-08-03T08:06:52.228Z,100325.41
2022-08-03T08:09:40.665Z,100359.94
2022-08-03T08:12:29.441Z,100330.59
2022-08-03T08:15:17.666Z,100306.19
2022-08-03T08:18:06.335Z,100089.00
2022-08-03T08:20:55.097Z,100084.53
2022-08-03T08:23:47.090Z,100237.34
2022-08-03T08:26:45.319Z,100031.66
2022-08-03T08:29:33.790Z,100121.81
2022-08-03T08:32:23.421Z,100185.94
2022-08-03T08:35:12.466Z,100092.69
2022-08-03T08:38:01.301Z,100139.19
2022-08-03T08:40:56.361Z,100035.78
2022-08-03T08:43:44.491Z,100044.84
2022-08-03T08:46:33.739Z,99995.94
2022-08-03T08:49:27.857Z,100007.22
2022-08-03T08:52:29.484Z,100021.22
2022-08-03T08:55:24.937Z,100034.78
2022-08-03T08:58:13.473Z,100007.66
2022-08-03T09:01:09.681Z,99949.00
2022-08-03T09:03:58.168Z,99887.13
2022-08-03T09:07:04.521Z,99900.72
2022-08-03T09:10:11.027Z,99910.44
2022-08-03T09:13:00.724Z,99878.84
2022-08-03T09:15:59.823Z,99806.69
2022-08-03T09:18:53.198Z,99941.13
2022-08-03T09:21:41.773Z,99732.16
2022-08-03T09:24:41.263Z,99854.88
2022-08-03T09:27:30.489Z,99891.75
2022-08-03T09:30:33.325Z,99909.53
2022-08-03T09:33:24.585Z,100016.25
2022-08-03T09:36:49.474Z,99964.19
2022-08-03T09:39:42.192Z,99846.31
2022-08-03T09:42:30.845Z,99764.19
2022-08-03T09:45:39.624Z,99669.97
2022-08-03T09:48:30.386Z,99703.81
2022-08-03T09:52:30.048Z,99828.03
2022-08-03T09:54:34.317Z,99798.78
2022-08-03T09:57:27.312Z,99647.25
2022-08-03T10:00:17.687Z,99650.16
2022-08-03T10:03:06.507Z,99640.53
2022-08-03T10:05:59.541Z,99757.41
2022-08-03T10:09:08.082Z,99720.66
2022-08-03T10:11:56.647Z,99674.97
2022-08-03T10:14:47.871Z,99592.84
2022-08-03T10:17:40.255Z,99654.91
2022-08-03T10:20:28.768Z,99689.09
2022-08-03T10:23:19.259Z,99423.44
2022-08-03T10:26:08.653Z,99568.81
2022-08-03T10:29:01.074Z,99541.00
2022-08-03T10:31:54.760Z,99529.47
2022-08-03T10:34:50.934Z,99614.09
2022-08-03T10:38:08.352Z,99584.72
2022-08-03T10:40:59.093Z,99653.66
2022-08-03T10:44:04.641Z,99535.56
2022-08-03T10:46:53.476Z,99453.63
2022-08-03T10:49:42.096Z,99475.13
2022-08-03T10:52:33.723Z,99592.38
2022-08-03T10:55:54.664Z,99573.94
2022-08-03T10:58:53.206Z,99567.56
2022-08-03T11:02:00.079Z,99495.47
2022-08-03T11:05:29.435Z,99551.59
2022-08-03T11:08:28.016Z,99487.47
2022-08-03T11:11:19.089Z,99346.56
2022-08-03T11:14:21.897Z,99431.88
2022-08-03T11:17:14.079Z,99384.88
2022-08-03T11:20:05.384Z,99383.16
2022-08-03T11:22:55.015Z,99511.75
2022-08-03T11:26:13.989Z,99471.19
2022-08-03T11:29:29.298Z,99408.59
2022-08-03T11:32:48.394Z,99472.97
2022-08-03T11:36:01.514Z,99441.03
2022-08-03T11:39:16.791Z,99407.53
2022-08-03T11:42:27.571Z,99419.75
2022-08-03T11:45:17.920Z,99320.19
2022-08-03T11:48:17.092Z,99429.19
2022-08-03T11:51:25.601Z,99465.69
2022-08-03T11:54:14.225Z,99427.09
2022-08-03T11:57:02.621Z,99323.91
2022-08-03T11:59:51.076Z,99295.13
2022-08-03T12:02:39.441Z,99386.75
2022-08-03T12:05:52.848Z,99205.09
2022-08-03T12:08:42.993Z,99332.47
2022-08-03T12:11:31.482Z,99316.56
2022-08-03T12:14:48.239Z,99267.19
2022-08-03T12:17:40.843Z,99298.78
2022-08-03T12:20:35.283Z,99298.59
2022-08-03T12:23:23.918Z,99297.78
2022-08-03T12:26:12.401Z,99295.16
2022-08-03T12:29:00.758Z,99326.88
2022-08-03T12:31:50.503Z,99313.56
2022-08-03T12:34:49.837Z,99295.88
2022-08-03T12:37:38.677Z,99200.84
2022-08-03T12:40:28.344Z,99241.66
2022-08-03T12:43:17.145Z,99153.78
2022-08-03T12:46:16.629Z,99164.91
2022-08-03T12:49:05.510Z,99227.97
2022-08-03T12:51:53.953Z,99203.59
2022-08-03T12:54:43.906Z,99289.34
2022-08-03T12:57:42.749Z,99180.88
2022-08-03T13:00:31.427Z,99246.22
2022-08-03T13:03:39.149Z,99247.25
2022-08-03T13:06:29.138Z,99231.06
2022-08-03T13:09:17.718Z,99222.22
2022-08-03T13:12:16.500Z,99226.03
2022-08-03T13:15:05.565Z,99143.31
2022-08-03T13:17:55.531Z,99115.06
2022-08-03T13:20:44.003Z,99144.59
2022-08-03T13:23:32.462Z,99210.06
2022-08-03T13:26:20.909Z,99156.38
2022-08-03T13:29:09.297Z,99203.09
2022-08-03T13:31:57.680Z,99216.13
2022-08-03T13:34:46.449Z,99169.16
2022-08-03T13:37:35.213Z,99155.81
2022-08-03T13:40:30.666Z,99103.22
2022-08-03T13:43:22.866Z,99186.00
2022-08-03T13:46:11.285Z,99203.63
2022-08-03T13:48:59.727Z,99160.63
2022-08-03T13:51:48.251Z,99213.56
2022-08-03T13:54:36.676Z,99198.72
2022-08-03T13:58:02.242Z,99064.44
2022-08-03T14:00:33.485Z,99207.91
2022-08-03T14:03:22.727Z,99227.91
2022-08-03T14:06:11.474Z,99134.31
2022-08-03T14:09:00.760Z,99134.59
2022-08-03T14:12:04.025Z,99187.25
2022-08-03T14:14:58.384Z,99115.31
2022-08-03T14:17:50.305Z,99145.28
2022-08-03T14:20:50.005Z,99113.69
2022-08-03T14:23:40.014Z,99182.38
2022-08-03T14:26:28.433Z,99231.13
2022-08-03T14:29:16.793Z,99158.53
2022-08-03T14:32:11.269Z,99070.38
2022-08-03T14:35:01.197Z,99104.28
2022-08-03T14:37:49.585Z,99090.13
2022-08-03T14:40:38.114Z,99101.28
2022-08-03T14:43:26.613Z,99071.53
2022-08-03T14:46:23.219Z,99096.00
2022-08-03T14:50:31.232Z,99136.78
2022-08-03T14:52:20.034Z,99132.69
2022-08-03T14:55:08.769Z,99162.53
2022-08-03T14:57:57.153Z,99170.25
2022-08-03T15:00:45.596Z,99128.88
2022-08-03T15:03:34.143Z,99121.94
2022-08-03T15:06:22.586Z,99157.84
2022-08-03T15:09:23.545Z,99141.56
2022-08-03T15:12:12.764Z,99073.47
2022-08-03T15:15:01.314Z,99134.47
2022-08-03T15:18:00.347Z,99144.84
2022-08-03T15:20:50.635Z,99123.25
2022-08-03T15:23:39.166Z,99075.13
2022-08-03T15:26:30.917Z,99095.00
2022-08-03T15:30:07.665Z,99086.19
2022-08-03T15:32:30.910Z,99102.53
2022-08-03T15:35:19.341Z,99114.09
2022-08-03T15:38:09.674Z,99117.03
2022-08-03T15:40:59.212Z,99170.53
2022-08-03T15:43:47.890Z,99127.28
2022-08-03T15:46:36.384Z,99155.06
2022-08-03T15:49:24.732Z,99134.84
2022-08-03T15:52:13.144Z,99091.03
2022-08-03T15:55:01.632Z,99153.34
2022-08-03T15:59:03.267Z,99111.63
2022-08-03T16:00:59.079Z,99080.78
2022-08-03T16:03:48.726Z,99171.47
2022-08-03T16:06:37.236Z,99137.22
2022-08-03T16:09:42.153Z,99139.94
2022-08-03T16:12:31.938Z,99106.25
2022-08-03T16:15:20.347Z,99145.81
2022-08-03T16:18:08.752Z,99042.63
2022-08-03T16:20:57.969Z,99115.63
2022-08-03T16:23:47.339Z,99139.38
2022-08-03T16:26:35.952Z,99112.47
2022-08-03T16:29:24.445Z,99189.81
2022-08-03T16:32:12.934Z,99150.47
2022-08-03T16:35:01.706Z,99147.81
2022-08-03T16:37:56.059Z,99213.66
2022-08-03T16:40:47.039Z,99237.47
2022-08-03T16:43:35.797Z,99174.72
2022-08-03T16:46:24.378Z,99209.31
2022-08-03T16:49:13.176Z,99244.97
2022-08-03T16:52:21.616Z,99301.19
2022-08-03T16:55:15.651Z,99231.63
2022-08-03T16:58:06.249Z,99234.59
2022-08-03T17:00:55.219Z,99186.25
2022-08-03T17:03:57.329Z,99279.22
2022-08-03T17:06:52.405Z,99239.78
2022-08-03T17:09:40.757Z,99255.53
2022-08-03T17:12:30.141Z,99197.75
2022-08-03T17:15:20.088Z,99262.34
2022-08-03T17:18:29.805Z,99296.88
2022-08-03T17:21:26.892Z,99356.28
2022-08-03T17:24:32.461Z,99423.06
2022-08-03T17:28:49.564Z,99333.50
2022-08-03T17:30:59.750Z,99316.31
2022-08-03T17:33:54.838Z,99345.72
2022-08-03T17:39:59.389Z,99391.00
2022-08-03T17:42:50.720Z,99337.41
2022-08-03T17:45:52.471Z,99348.94
2022-08-03T17:48:43.185Z,99386.91
2022-08-03T17:51:46.557Z,99349.25
2022-08-03T17:55:57.277Z,99367.47
2022-08-03T17:58:58.575Z,99401.88
2022-08-03T18:02:55.129Z,99378.44
2022-08-03T18:06:11.276Z,99405.97
2022-08-03T18:09:00.030Z,99429.09
2022-08-03T18:11:59.009Z,99354.06
2022-08-03T18:15:08.360Z,99453.41
2022-08-03T18:18:10.527Z,99520.25
2022-08-03T18:21:04.563Z,99483.38
2022-08-03T18:23:59.538Z,99501.41
2022-08-03T18:26:49.955Z,99493.69
2022-08-03T18:29:40.058Z,99514.81
2022-08-03T18:32:28.397Z,99526.31
2022-08-03T18:35:24.720Z,99518.84
2022-08-03T18:38:16.783Z,99532.75
2022-08-03T18:41:15.588Z,99527.75
2022-08-03T18:44:46.540Z,99543.09
2022-08-03T18:47:50.442Z,99516.78
2022-08-03T18:50:53.780Z,99528.59
2022-08-03T18:54:02.325Z,99556.97
2022-08-03T18:56:56.961Z,99565.59
2022-08-03T19:00:12.258Z,99576.34
2022-08-03T19:03:07.165Z,99599.34
2022-08-03T19:06:13.260Z,99624.59
2022-08-03T19:09:13.243Z,99642.84
2022-08-03T19:12:13.926Z,99655.53
2022-08-03T19:15:16.418Z,99675.53
2022-08-03T19:18:16.625Z,99699.81
2022-08-03T19:21:12.737Z,99688.09
2022-08-03T19:24:09.906Z,99685.13
2022-08-03T19:26:59.878Z,99694.91
2022-08-03T19:29:58.779Z,99719.09
2022-08-03T19:32:50.707Z,99727.47
2022-08-03T19:35:51.538Z,99738.56
2022-08-03T19:38:44.710Z,99758.47
2022-08-03T19:41:42.756Z,99784.00
2022-08-03T19:44:34.282Z,99797.88
2022-08-03T19:48:09.725Z,99801.69
2022-08-03T19:50:59.783Z,99785.97
2022-08-03T19:53:51.813Z,99827.41
2022-08-03T19:56:47.920Z,99833.50
2022-08-03T19:59:56.684Z,99861.66
2022-08-03T20:02:45.632Z,99849.22
2022-08-03T20:05:44.841Z,99862.06
2022-08-03T20:08:44.087Z,99866.78
2022-08-03T20:11:33.965Z,99882.38
2022-08-03T20:14:33.792Z,99878.06
2022-08-03T20:17:22.093Z,99868.41
2022-08-03T20:20:36.571Z,99881.66
2022-08-03T20:23:27.557Z,99833.06
2022-08-03T20:26:30.385Z,99868.72
2022-08-03T20:30:06.115Z,99909.16
2022-08-03T20:32:50.529Z,99942.00
2022-08-03T20:35:41.869Z,99918.00
2022-08-03T20:38:34.588Z,99926.13
2022-08-03T20:41:32.513Z,99871.56
2022-08-03T20:44:25.943Z,99908.09
2022-08-03T20:47:15.057Z,99905.97
2022-08-03T20:50:13.007Z,99926.56
2022-08-03T20:53:05.942Z,99951.66
2022-08-03T20:56:02.190Z,99956.97
2022-08-03T20:58:51.787Z,99954.66
2022-08-03T21:01:39.957Z,99977.19
2022-08-03T21:04:32.890Z,99960.41
2022-08-03T21:07:22.858Z,99959.19
2022-08-03T21:10:15.344Z,99975.31
2022-08-03T21:13:17.677Z,100006.50
2022-08-03T21:16:13.931Z,99984.72
2022-08-03T21:19:04.378Z,99973.53
2022-08-03T21:21:53.077Z,99964.41
2022-08-03T21:24:41.568Z,99987.66
2022-08-03T21:27:31.715Z,99975.81
2022-08-03T21:30:22.749Z,99983.41
2022-08-03T21:33:11.276Z,99961.59
2022-08-03T21:36:01.894Z,99980.75
2022-08-03T21:38:56.522Z,99999.94
2022-08-03T21:41:45.621Z,99993.53
2022-08-03T21:44:34.009Z,99979.88
2022-08-03T21:47:24.443Z,99995.41
2022-08-03T21:50:13.960Z,99995.06
2022-08-03T21:53:03.515Z,100000.81
2022-08-03T21:55:58.425Z,99977.84
2022-08-03T21:59:02.613Z,99979.31
2022-08-03T22:01:55.161Z,99983.72
2022-08-03T22:04:56.031Z,99990.03
2022-08-03T22:07:46.052Z,99952.09
2022-08-03T22:10:34.579Z,99949.84
2022-08-03T22:13:44.271Z,99971.59
2022-08-03T22:16:31.802Z,99997.66
2022-08-03T22:19:20.326Z,99962.97
2022-08-03T22:22:13.737Z,99950.06
2022-08-03T22:25:12.455Z,99975.22
2022-08-03T22:28:07.321Z,99976.22
2022-08-03T22:30:56.077Z,99962.69
2022-08-03T22:33:49.057Z,99961.31
2022-08-03T22:36:37.565Z,99958.34
2022-08-03T22:39:29.145Z,99955.91
2022-08-03T22:42:19.304Z,99953.34
2022-08-03T22:45:08.319Z,99970.84
2022-08-03T22:47:57.075Z,100002.28
2022-08-03T22:50:46.555Z,99985.38
2022-08-03T22:53:35.411Z,99997.53
2022-08-03T22:56:24.190Z,100013.81
2022-08-03T22:59:38.823Z,100005.28
2022-08-03T23:02:22.584Z,99993.00
2022-08-03T23:06:01.734Z,100019.47
2022-08-03T23:08:34.762Z,100014.09
2022-08-03T23:11:24.616Z,100019.72
2022-08-03T23:14:15.867Z,100024.47
2022-08-03T23:17:05.193Z,100038.78
2022-08-03T23:19:55.629Z,100026.31
2022-08-03T23:22:44.518Z,100034.66
2022-08-03T23:25:41.013Z,100016.41
2022-08-03T23:28:32.190Z,100008.94
2022-08-03T23:31:21.784Z,100021.41
2022-08-03T23:34:32.849Z,100026.63
2022-08-03T23:37:21.582Z,100042.53
2022-08-03T23:40:13.152Z,100042.53
2022-08-03T23:43:03.002Z,100058.41
2022-08-03T23:45:52.765Z,100056.81
2022-08-03T23:48:41.273Z,100061.97
2022-08-03T23:51:53.027Z,100042.41
2022-08-03T23:55:20.656Z,100051.16
2022-08-03T23:58:46.553Z,100045.91
